Time;durP1;ratioP1;P1;durP2;ratioP2;P2;SDS_P1;SDS_P2;PMS_P1;PMS_P2;Temp;Humidity;BMP_temperature;BMP_pressure;BME280_temperature;BME280_humidity;BME280_pressure;Samples;Min_cycle;Max_cycle;Signal;HPM_P1;HPM_P2
2023/10/19 00:00:20;;;;;;;4.18;2.83;;;;;;;9.81;100.00;100428.41;10294120;28;20046;-82
2023/10/19 00:05:20;;;;;;;3.67;2.78;;;;;;;10.18;100.00;100477.63;10295930;28;20050;-82
2023/10/19 00:10:21;;;;;;;6.63;3.72;;;;;;;9.18;100.00;100309.50;10278956;28;20446;-85
2023/10/19 00:15:24;;;;;;;3.65;3.10;;;;;;;9.96;100.00;100420.66;10278136;28;20053;-83
2023/10/19 00:25:42;;;;;;;5.53;3.53;;;;;;;10.44;100.00;100489.00;10294476;28;20043;-86
2023/10/19 00:30:45;;;;;;;8.18;3.40;;;;;;;10.11;100.00;100424.38;10294286;28;20053;-82
2023/10/19 00:35:47;;;;;;;6.45;3.55;;;;;;;10.37;100.00;100456.13;10293133;28;20067;-83
2023/10/19 00:41:07;;;;;;;5.90;3.40;;;;;;;10.46;100.00;100476.38;10294271;28;20082;-86
2023/10/19 00:46:20;;;;;;;5.18;3.70;;;;;;;10.35;100.00;100460.78;10293691;28;20057;-85
2023/10/19 00:51:28;;;;;;;8.98;3.72;;;;;;;10.47;100.00;100483.38;10294209;28;20039;-85
2023/10/19 00:56:32;;;;;;;6.78;3.55;;;;;;;10.29;100.00;100440.19;10294105;28;20459;-85
2023/10/19 01:01:46;;;;;;;;;;;;;;;;;;;;;
2023/10/19 01:07:11;;;;;;;7.53;3.97;;;;;;;10.11;100.00;100429.66;10293509;28;20042;-84
2023/10/19 01:12:45;;;;;;;5.68;3.80;;;;;;;10.44;100.00;100482.84;10292879;28;20045;-84
2023/10/19 01:18:07;;;;;;;6.85;3.28;;;;;;;9.48;100.00;100326.69;10290602;28;20082;-85
2023/10/19 01:33:44;;;;;;;5.70;3.63;;;;;;;10.00;100.00;100433.44;10292095;28;20438;-86
2023/10/19 01:38:47;;;;;;;4.97;3.50;;;;;;;9.93;100.00;100423.63;10291076;28;20053;-89
2023/10/19 01:43:50;;;;;;;8.25;4.43;;;;;;;10.20;100.00;100484.44;10292396;28;20039;-85
2023/10/19 01:48:55;;;;;;;5.97;3.95;;;;;;;10.20;100.00;100496.84;10290477;28;20050;-83
2023/10/19 01:53:57;;;;;;;6.45;3.60;;;;;;;9.63;100.00;100398.50;10292393;28;20057;-85
2023/10/19 01:58:59;;;;;;;8.77;4.35;;;;;;;9.80;100.00;100424.94;10292686;28;20490;-86
2023/10/19 02:04:03;;;;;;;6.07;4.10;;;;;;;9.79;100.00;100446.31;10286003;28;20070;-84
2023/10/19 02:09:26;;;;;;;11.63;4.30;;;;;;;9.58;100.00;100412.25;10282194;28;20042;-82
2023/10/19 02:14:31;;;;;;;6.43;4.28;;;;;;;9.55;100.00;100408.09;10285576;28;20046;-81
2023/10/19 02:19:32;;;;;;;;;;;;;;;10.13;100.00;100486.06;10285746;28;20094;-80
2023/10/19 02:24:35;;;;;;;6.95;4.32;;;;;;;9.57;100.00;100422.03;10289705;28;19929;-84
2023/10/19 02:29:36;;;;;;;6.10;3.92;;;;;;;9.50;100.00;100415.69;10248962;28;20054;-86
2023/10/19 03:01:34;;;;;;;;;;;;;;;;;;;;;
2023/10/19 03:12:56;;;;;;;;;;;;;;;;;;;;;
2023/10/19 03:49:20;;;;;;;5.63;4.40;;;;;;;9.05;100.00;100386.81;10178505;29;20621;-80
2023/10/19 03:54:21;;;;;;;5.70;4.43;;;;;;;8.88;100.00;100356.72;10394665;28;20042;-76
2023/10/19 03:59:23;;;;;;;8.15;4.90;;;;;;;9.52;100.00;100477.38;10390330;28;20045;-88
2023/10/19 04:04:24;;;;;;;9.85;5.32;;;;;;;9.97;100.00;100547.06;10416862;28;20069;-84
2023/10/19 04:09:30;;;;;;;8.45;5.47;;;;;;;10.01;100.00;100559.84;10416433;28;20065;-82
2023/10/19 04:14:31;;;;;;;7.32;5.32;;;;;;;9.74;100.00;100528.19;10416357;28;20501;-82
2023/10/19 04:19:32;;;;;;;9.48;5.15;;;;;;;9.99;100.00;100591.03;10416816;28;20037;-80
2023/10/19 04:24:33;;;;;;;13.85;5.50;;;;;;;9.96;100.00;100585.19;10416803;28;20440;-78
2023/10/19 04:29:35;;;;;;;11.13;5.05;;;;;;;9.89;100.00;100561.13;10417309;28;20401;-77
2023/10/19 04:34:39;;;;;;;12.15;7.13;;;;;;;10.02;100.00;100580.09;10416623;28;20060;-78
2023/10/19 04:39:40;;;;;;;8.20;5.35;;;;;;;9.88;100.00;100554.16;10416093;28;20511;-84
2023/10/19 04:44:40;;;;;;;14.30;6.07;;;;;;;9.83;100.00;100553.78;10416561;28;20038;-81
2023/10/19 04:49:41;;;;;;;13.25;9.40;;;;;;;10.20;100.00;100611.88;10415200;28;20416;-77
2023/10/19 04:54:42;;;;;;;13.77;5.53;;;;;;;9.90;100.00;100553.97;10413801;28;20041;-79
2023/10/19 04:59:45;;;;;;;7.55;5.38;;;;;;;10.19;100.00;100598.75;10415405;28;20045;-79
2023/10/19 05:04:46;;;;;;;7.90;5.25;;;;;;;9.92;100.00;100579.38;10413731;28;20037;-79
2023/10/19 05:09:47;;;;;;;7.43;4.65;;;;;;;9.94;100.00;100558.00;10415033;28;20512;-79
2023/10/19 05:14:48;;;;;;;6.93;5.00;;;;;;;10.32;100.00;100595.66;10413450;28;20124;-79
2023/10/19 05:19:49;;;;;;;5.72;4.95;;;;;;;10.29;100.00;100591.53;10413841;28;20511;-79
2023/10/19 05:24:51;;;;;;;7.43;5.30;;;;;;;10.42;100.00;100599.88;10413595;28;20110;-79
2023/10/19 05:29:52;;;;;;;13.25;5.40;;;;;;;10.60;100.00;100605.06;10413487;28;20041;-79
2023/10/19 05:34:53;;;;;;;7.43;4.35;;;;;;;10.66;100.00;100604.44;10413587;28;20439;-78
2023/10/19 05:39:53;;;;;;;14.80;4.88;;;;;;;10.80;100.00;100610.94;10414115;28;20041;-79
2023/10/19 05:44:54;;;;;;;20.88;5.20;;;;;;;11.05;100.00;100603.00;10413136;28;20045;-79
2023/10/19 05:49:55;;;;;;;12.43;4.82;;;;;;;10.89;100.00;100583.38;10413068;28;20042;-78
2023/10/19 05:54:57;;;;;;;9.10;4.50;;;;;;;10.68;100.00;100546.66;10413524;28;20136;-79
2023/10/19 05:59:58;;;;;;;5.55;3.85;;;;;;;10.91;100.00;100607.97;10413168;28;20616;-78
2023/10/19 06:04:58;;;;;;;8.10;4.38;;;;;;;10.50;100.00;100549.44;10412453;28;20043;-78
2023/10/19 06:10:03;;;;;;;7.10;3.83;;;;;;;10.51;100.00;100569.69;10412335;28;20076;-78
2023/10/19 06:15:05;;;;;;;7.07;4.18;;;;;;;10.92;100.00;100624.75;10413201;28;20131;-78
2023/10/19 06:20:08;;;;;;;8.75;3.70;;;;;;;10.65;100.00;100576.22;10419086;28;20116;-78
2023/10/19 06:25:09;;;;;;;7.35;3.97;;;;;;;10.77;100.00;100584.69;10421478;28;20448;-78
2023/10/19 06:30:11;;;;;;;5.88;4.10;;;;;;;10.82;100.00;100570.91;10420483;28;20041;-78
2023/10/19 06:35:11;;;;;;;9.95;4.50;;;;;;;11.06;100.00;100583.38;10420427;28;20087;-78
2023/10/19 06:40:16;;;;;;;7.32;4.18;;;;;;;11.34;100.00;100624.63;10420005;28;20106;-78
2023/10/19 06:45:18;;;;;;;6.78;4.10;;;;;;;11.43;100.00;100639.59;10419199;28;20049;-78
2023/10/19 06:50:21;;;;;;;9.10;4.20;;;;;;;11.52;100.00;100642.25;10420311;28;20432;-77
2023/10/19 06:55:25;;;;;;;5.72;3.55;;;;;;;11.43;100.00;100618.31;10419482;28;20045;-79
2023/10/19 07:00:28;;;;;;;9.38;4.40;;;;;;;11.48;100.00;100633.75;10419348;28;20124;-78
2023/10/19 07:05:32;;;;;;;12.07;4.50;;;;;;;11.49;100.00;100627.47;10419030;28;20068;-78
2023/10/19 07:10:34;;;;;;;13.20;4.50;;;;;;;11.27;100.00;100591.69;10420212;28;20262;-78
2023/10/19 07:15:35;;;;;;;7.60;4.13;;;;;;;11.53;100.00;100643.91;10419440;28;20044;-78
2023/10/19 07:20:38;;;;;;;15.15;4.97;;;;;;;11.58;100.00;100642.41;10418508;28;20037;-78
2023/10/19 07:25:48;;;;;;;7.38;3.70;;;;;;;11.57;100.00;100645.22;10418364;28;20033;-78
2023/10/19 07:30:51;;;;;;;11.13;3.63;;;;;;;11.25;100.00;100604.34;10417996;28;20037;-78
2023/10/19 07:35:55;;;;;;;23.27;4.20;;;;;;;11.57;100.00;100653.22;10418809;28;20037;-79
2023/10/19 07:40:55;;;;;;;;;;;;;;;11.80;100.00;100667.50;10418900;28;20048;-79
2023/10/19 07:45:56;;;;;;;8.57;3.42;;;;;;;11.69;100.00;100670.50;10417708;28;19916;-78
2023/10/19 07:50:57;;;;;;;7.40;3.90;;;;;;;11.17;100.00;100577.75;10418088;28;20490;-78
2023/10/19 07:55:58;;;;;;;5.80;3.97;;;;;;;11.84;100.00;100668.00;10417345;28;20050;-78
2023/10/19 08:00:59;;;;;;;11.80;4.30;;;;;;;11.89;100.00;100649.72;10417929;28;20033;-78
2023/10/19 08:05:59;;;;;;;5.03;3.28;;;;;;;12.16;100.00;100663.66;10417408;28;20096;-79
2023/10/19 08:11:00;;;;;;;7.13;3.60;;;;;;;12.13;100.00;100629.38;10417628;28;20455;-78
2023/10/19 08:16:01;;;;;;;7.50;3.17;;;;;;;12.46;100.00;100667.38;10415832;28;20038;-78
2023/10/19 08:21:02;;;;;;;5.07;2.90;;;;;;;12.23;100.00;100619.34;10417372;28;20057;-79
2023/10/19 08:26:05;;;;;;;8.40;3.33;;;;;;;12.32;100.00;100634.28;10416575;28;20041;-78
2023/10/19 08:31:10;;;;;;;8.02;3.38;;;;;;;12.48;100.00;100636.09;10415927;28;20516;-78
2023/10/19 08:36:19;;;;;;;5.65;2.78;;;;;;;12.70;100.00;100651.28;10415721;28;20091;-79
2023/10/19 08:41:20;;;;;;;4.53;2.75;;;;;;;12.67;99.96;100654.28;10416048;28;20045;-79
2023/10/19 08:46:20;;;;;;;10.00;2.72;;;;;;;12.81;99.68;100649.25;10415690;28;20037;-79
2023/10/19 08:51:21;;;;;;;9.35;3.03;;;;;;;12.43;99.01;100572.63;10415616;28;20045;-79
2023/10/19 08:56:23;;;;;;;5.13;2.70;;;;;;;12.45;98.73;100551.16;10414785;28;20408;-78
2023/10/19 09:01:24;;;;;;;6.25;2.50;;;;;;;12.73;98.88;100613.63;10415275;28;20048;-77
2023/10/19 09:06:25;;;;;;;4.40;2.28;;;;;;;12.64;98.37;100614.66;10414984;28;20029;-78
2023/10/19 09:11:26;;;;;;;4.85;2.50;;;;;;;12.27;98.46;100562.06;10415588;28;20057;-78
2023/10/19 09:16:26;;;;;;;5.93;2.50;;;;;;;12.76;98.34;100609.78;10414707;28;20049;-79
2023/10/19 09:21:28;;;;;;;2.90;1.85;;;;;;;12.81;98.50;100619.94;10413924;28;20053;-78
2023/10/19 09:26:30;;;;;;;3.28;1.80;;;;;;;12.25;97.41;100516.97;10414487;28;20485;-77
2023/10/19 09:31:31;;;;;;;7.40;2.30;;;;;;;12.63;97.38;100573.03;10413775;28;20056;-78
2023/10/19 09:36:32;;;;;;;9.45;2.10;;;;;;;12.49;97.86;100529.31;10413494;28;20033;-78
2023/10/19 09:41:34;;;;;;;2.95;1.92;;;;;;;12.47;97.10;100482.53;10413160;28;20131;-77
2023/10/19 09:46:39;;;;;;;2.42;1.50;;;;;;;13.05;95.82;100587.75;10413230;28;20586;-78
2023/10/19 09:51:43;;;;;;;9.30;1.80;;;;;;;12.72;96.44;100537.34;10413207;28;20029;-79
2023/10/19 09:56:52;;;;;;;3.25;1.80;;;;;;;13.29;95.26;100577.94;10413878;28;20401;-78
2023/10/19 10:02:05;;;;;;;3.80;1.70;;;;;;;13.80;94.03;100604.81;10412696;28;20041;-77
2023/10/19 10:07:09;;;;;;;3.23;1.73;;;;;;;13.60;93.99;100564.47;10412895;28;20049;-79
2023/10/19 10:12:21;;;;;;;;;;;;;;;14.01;93.53;100594.22;10413546;28;20132;-78
2023/10/19 10:17:22;;;;;;;4.75;1.40;;;;;;;13.69;93.50;100590.88;10395473;28;20015;-78
2023/10/19 10:22:24;;;;;;;6.90;1.90;;;;;;;13.12;93.11;100508.69;10395364;28;20051;-79
2023/10/19 10:27:25;;;;;;;6.00;1.70;;;;;;;13.77;93.21;100589.97;10413167;28;20089;-78
2023/10/19 10:32:48;;;;;;;8.45;2.30;;;;;;;13.89;92.00;100595.69;10413380;28;20645;-77
2023/10/19 10:37:55;;;;;;;3.30;1.50;;;;;;;13.79;92.02;100571.94;10395362;28;20049;-78
2023/10/19 10:43:06;;;;;;;3.35;1.30;;;;;;;13.67;90.59;100528.84;10413086;28;20048;-78
2023/10/19 10:48:19;;;;;;;14.20;1.98;;;;;;;14.09;91.04;100569.25;10412286;28;20493;-78
2023/10/19 10:53:20;;;;;;;5.65;1.50;;;;;;;13.66;90.56;100511.16;10411601;28;20045;-79
2023/10/19 10:58:21;;;;;;;2.50;1.33;;;;;;;14.04;90.53;100575.16;10411575;28;20072;-78
2023/10/19 11:03:24;;;;;;;6.18;1.50;;;;;;;13.54;89.88;100519.81;10411994;28;20033;-79
2023/10/19 11:08:24;;;;;;;4.28;1.42;;;;;;;13.63;90.19;100564.91;10419344;28;20053;-77
2023/10/19 11:13:25;;;;;;;13.90;2.28;;;;;;;13.70;90.73;100589.88;10419367;28;20056;-78
2023/10/19 11:18:32;;;;;;;10.55;1.83;;;;;;;13.71;90.42;100609.41;10418748;28;20045;-78
2023/10/19 11:23:45;;;;;;;3.15;1.30;;;;;;;13.10;89.70;100532.06;10419647;28;20136;-78
2023/10/19 11:28:51;;;;;;;2.78;1.40;;;;;;;13.46;90.34;100614.13;10418307;28;20045;-78
2023/10/19 11:33:55;;;;;;;9.07;1.40;;;;;;;13.53;90.21;100620.41;10418755;28;20120;-79
2023/10/19 11:38:55;;;;;;;3.77;1.57;;;;;;;13.22;90.13;100573.28;10418824;28;20120;-78
2023/10/19 11:43:57;;;;;;;2.78;1.15;;;;;;;13.26;90.05;100579.13;10418815;28;20093;-78
2023/10/19 11:48:57;;;;;;;10.32;1.65;;;;;;;12.98;90.14;100525.47;10418686;28;20045;-78
2023/10/19 11:53:58;;;;;;;2.70;1.20;;;;;;;13.50;90.31;100590.59;10399602;28;20528;-79
2023/10/19 11:58:59;;;;;;;3.75;1.02;;;;;;;13.53;89.81;100564.38;10417084;28;20041;-80
2023/10/19 12:03:59;;;;;;;6.43;1.52;;;;;;;13.78;89.16;100598.81;10418005;28;20071;-79
2023/10/19 12:09:11;;;;;;;10.68;1.55;;;;;;;13.82;88.21;100595.63;10417138;28;20057;-78
2023/10/19 12:14:14;;;;;;;4.10;1.15;;;;;;;13.98;87.56;100615.16;10399647;28;20045;-77
2023/10/19 12:19:17;;;;;;;3.28;1.02;;;;;;;13.88;86.94;100568.19;10399352;28;20125;-78
2023/10/19 12:24:18;;;;;;;6.25;1.58;;;;;;;13.95;86.28;100570.09;10413147;28;20048;-80
2023/10/19 12:29:21;;;;;;;1.92;1.17;;;;;;;14.59;85.35;100648.66;10417265;28;20136;-79
2023/10/19 12:34:22;;;;;;;2.38;1.25;;;;;;;14.09;85.45;100563.91;10384950;28;20092;-77
2023/10/19 12:39:35;;;;;;;5.38;1.40;;;;;;;14.09;85.13;100558.56;10397044;28;20049;-77
2023/10/19 12:44:39;;;;;;;2.10;1.13;;;;;;;14.19;85.23;100582.34;10388859;28;20044;-79
2023/10/19 12:49:40;;;;;;;2.00;1.20;;;;;;;14.21;85.87;100626.56;10364164;28;20042;-78
2023/10/19 12:54:44;;;;;;;3.88;1.10;;;;;;;14.10;86.04;100638.53;10373348;28;20037;-80
2023/10/19 12:59:44;;;;;;;3.27;1.10;;;;;;;13.62;85.56;100594.47;10409939;28;20107;-78
2023/10/19 13:04:46;;;;;;;437.08;228.10;;;;;;;13.82;86.18;100643.69;10401822;28;20103;-78
2023/10/19 13:09:49;;;;;;;250.73;113.57;;;;;;;13.70;86.58;100629.13;10414597;28;20144;-78
2023/10/19 13:14:52;;;;;;;212.05;95.30;;;;;;;13.89;86.56;100662.47;10398458;28;20513;-78
2023/10/19 13:19:56;;;;;;;178.45;71.97;;;;;;;13.39;86.74;100583.84;10405200;28;20128;-78
2023/10/19 13:24:56;;;;;;;114.25;54.65;;;;;;;13.66;87.19;100630.47;10410238;28;20038;-78
2023/10/19 13:29:57;;;;;;;34.70;11.00;;;;;;;13.73;87.74;100655.44;10377365;28;20038;-78
2023/10/19 13:34:58;;;;;;;129.73;65.57;;;;;;;13.12;87.93;100556.69;10403577;28;20556;-78
2023/10/19 13:39:59;;;;;;;116.53;51.70;;;;;;;13.39;87.99;100627.34;10398061;28;20041;-78
2023/10/19 13:44:59;;;;;;;67.30;25.10;;;;;;;13.50;88.79;100692.84;10412956;28;20083;-78
2023/10/19 13:50:00;;;;;;;12.07;4.68;;;;;;;13.20;89.68;100674.00;10414023;28;20053;-77
2023/10/19 13:55:01;;;;;;;12.32;3.65;;;;;;;12.69;90.47;100625.66;10413627;28;20045;-77
2023/10/19 14:00:03;;;;;;;23.38;3.85;;;;;;;12.91;91.32;100680.00;10399849;28;20087;-78
2023/10/19 14:05:04;;;;;;;7.85;2.28;;;;;;;12.59;92.17;100662.31;10398556;28;20042;-75
2023/10/19 14:10:07;;;;;;;13.30;2.30;;;;;;;12.25;93.72;100647.47;10390457;28;20065;-76
2023/10/19 14:15:18;;;;;;;9.35;2.63;;;;;;;12.00;95.90;100619.28;10372382;28;20196;-75
2023/10/19 14:20:19;;;;;;;5.50;2.08;;;;;;;11.75;94.53;100608.63;10410746;28;20114;-76
2023/10/19 14:25:21;;;;;;;7.97;2.28;;;;;;;11.86;95.42;100661.53;10412360;28;20083;-77
2023/10/19 14:30:24;;;;;;;14.18;2.60;;;;;;;11.77;96.14;100686.47;10395700;28;20037;-77
2023/10/19 14:35:25;;;;;;;14.10;2.13;;;;;;;11.53;96.55;100675.84;10410583;28;20048;-77
2023/10/19 14:40:27;;;;;;;6.15;1.90;;;;;;;11.32;96.84;100677.16;10410808;28;20055;-77
2023/10/19 14:45:28;;;;;;;6.85;2.05;;;;;;;10.87;97.36;100643.00;10414436;28;20056;-77
2023/10/19 14:50:30;;;;;;;5.13;2.08;;;;;;;11.10;97.69;100715.84;10420570;28;20048;-77
2023/10/19 14:55:31;;;;;;;9.65;2.50;;;;;;;10.72;98.29;100687.97;10420355;28;20513;-77
2023/10/19 15:00:37;;;;;;;4.50;2.30;;;;;;;10.59;98.90;100683.13;10419390;28;20045;-77
2023/10/19 15:05:38;;;;;;;8.10;2.85;;;;;;;10.67;99.88;100724.81;10419274;28;20037;-78
2023/10/19 15:10:42;;;;;;;20.58;12.07;;;;;;;10.55;100.00;100731.41;10419903;28;20516;-77
2023/10/19 15:15:42;;;;;;;42.40;15.90;;;;;;;10.12;100.00;100682.69;10419275;28;20152;-77
2023/10/19 15:20:43;;;;;;;20.83;10.32;;;;;;;9.99;100.00;100675.97;10418533;28;20137;-77
2023/10/19 15:25:44;;;;;;;12.35;5.88;;;;;;;10.19;100.00;100732.31;10411551;28;20049;-78
2023/10/19 15:30:45;;;;;;;8.45;3.33;;;;;;;10.21;100.00;100750.75;10410007;28;20052;-77
2023/10/19 15:35:48;;;;;;;5.53;3.40;;;;;;;10.09;100.00;100759.97;10418291;28;20045;-78
2023/10/19 15:40:49;;;;;;;5.30;2.85;;;;;;;9.85;100.00;100740.22;10418599;28;20057;-78
2023/10/19 15:45:50;;;;;;;6.78;3.03;;;;;;;9.73;100.00;100734.31;10418254;28;20042;-78
2023/10/19 15:50:50;;;;;;;4.70;3.28;;;;;;;9.62;100.00;100723.09;10416727;28;20049;-77
2023/10/19 15:55:51;;;;;;;6.13;3.03;;;;;;;9.62;100.00;100742.50;10417158;28;20041;-77
2023/10/19 16:00:52;;;;;;;4.93;3.15;;;;;;;9.70;100.00;100762.97;10417688;28;20045;-77
2023/10/19 16:05:54;;;;;;;6.57;3.28;;;;;;;9.41;100.00;100734.84;10417107;28;20049;-76
2023/10/19 16:10:55;;;;;;;9.23;3.38;;;;;;;9.32;100.00;100719.84;10417809;28;20058;-76
2023/10/19 16:15:56;;;;;;;7.53;3.53;;;;;;;9.49;100.00;100761.44;10396377;28;20096;-76
2023/10/19 16:20:57;;;;;;;8.85;4.63;;;;;;;9.42;100.00;100752.41;10393533;28;20045;-77
2023/10/19 16:25:59;;;;;;;11.02;4.88;;;;;;;9.59;100.00;100801.16;10397458;28;20497;-77
2023/10/19 16:31:04;;;;;;;10.88;5.57;;;;;;;8.99;100.00;100722.13;10368155;28;20413;-79
2023/10/19 16:36:05;;;;;;;15.15;7.57;;;;;;;9.17;100.00;100763.75;10352903;28;20034;-77
2023/10/19 16:41:05;;;;;;;15.02;6.40;;;;;;;9.37;100.00;100818.31;10353738;28;20547;-80
2023/10/19 16:46:06;;;;;;;21.73;7.45;;;;;;;9.27;100.00;100818.38;10355249;28;20038;-80
2023/10/19 16:51:07;;;;;;;31.85;7.10;;;;;;;9.27;100.00;100828.13;10355125;28;20031;-80
2023/10/19 16:56:07;;;;;;;14.55;5.28;;;;;;;9.16;100.00;100828.34;10372693;28;20049;-80
2023/10/19 17:01:12;;;;;;;10.90;4.78;;;;;;;9.16;100.00;100833.66;10388117;28;20408;-80
2023/10/19 17:06:13;;;;;;;12.23;4.43;;;;;;;8.99;100.00;100804.28;10407921;28;20039;-77
2023/10/19 17:11:13;;;;;;;9.50;4.80;;;;;;;9.11;100.00;100834.91;10415404;28;20141;-79
2023/10/19 17:16:14;;;;;;;8.90;5.40;;;;;;;9.09;100.00;100810.38;10401281;28;20067;-80
2023/10/19 17:21:15;;;;;;;10.50;5.97;;;;;;;8.72;100.00;100753.94;10413975;28;20049;-80
2023/10/19 17:26:16;;;;;;;11.73;5.85;;;;;;;9.09;100.00;100820.13;10414959;28;20517;-79
2023/10/19 17:31:17;;;;;;;8.75;4.97;;;;;;;8.81;100.00;100790.13;10413677;28;20042;-80
2023/10/19 17:36:18;;;;;;;8.35;5.20;;;;;;;8.87;100.00;100813.41;10413897;28;20041;-81
2023/10/19 17:41:19;;;;;;;11.15;6.25;;;;;;;8.98;100.00;100825.66;10413341;28;20563;-80
2023/10/19 17:46:21;;;;;;;11.48;7.05;;;;;;;8.51;100.00;100775.31;10413280;28;20489;-82
2023/10/19 17:51:22;;;;;;;14.38;6.18;;;;;;;8.66;100.00;100826.84;10414041;28;20037;-80
2023/10/19 17:56:23;;;;;;;21.55;5.97;;;;;;;8.63;100.00;100841.22;10414176;28;20045;-80
2023/10/19 18:01:24;;;;;;;7.70;4.22;;;;;;;8.43;100.00;100805.97;10413028;28;20105;-83
2023/10/19 18:06:25;;;;;;;10.68;4.55;;;;;;;8.00;100.00;100782.63;10413424;28;20508;-82
2023/10/19 18:11:27;;;;;;;9.98;4.30;;;;;;;7.93;100.00;100792.94;10414042;28;20061;-84
2023/10/19 18:16:28;;;;;;;17.33;4.93;;;;;;;7.81;100.00;100775.56;10413086;28;20186;-83
2023/10/19 18:21:31;;;;;;;20.17;6.05;;;;;;;7.77;100.00;100769.69;10412613;28;20045;-81
2023/10/19 18:26:32;;;;;;;20.45;7.15;;;;;;;8.22;100.00;100851.13;10412840;28;20409;-78
2023/10/19 18:31:32;;;;;;;17.85;6.70;;;;;;;7.69;100.00;100792.53;10413162;28;20037;-79
2023/10/19 18:36:33;;;;;;;14.23;6.65;;;;;;;7.50;100.00;100780.94;10394540;28;20419;-79
2023/10/19 18:41:34;;;;;;;18.48;6.45;;;;;;;7.81;100.00;100839.03;10412060;28;20455;-80
2023/10/19 18:46:35;;;;;;;20.58;6.55;;;;;;;7.65;100.00;100833.41;10412090;28;20045;-80
2023/10/19 18:51:36;;;;;;;19.23;5.90;;;;;;;7.40;100.00;100785.38;10413136;28;20045;-80
2023/10/19 18:56:37;;;;;;;22.17;6.95;;;;;;;7.70;100.00;100860.31;10412167;28;20041;-80
2023/10/19 19:01:38;;;;;;;11.10;5.72;;;;;;;7.28;100.00;100789.94;10412277;28;20072;-80
2023/10/19 19:06:40;;;;;;;19.33;6.53;;;;;;;7.61;100.00;100842.63;10412089;28;20481;-77
2023/10/19 19:11:42;;;;;;;16.95;6.22;;;;;;;7.49;100.00;100842.72;10411636;28;20140;-79
2023/10/19 19:16:45;;;;;;;30.05;6.13;;;;;;;7.48;100.00;100854.28;10398516;28;20042;-78
2023/10/19 19:21:47;;;;;;;9.82;4.70;;;;;;;7.18;100.00;100820.81;10411946;28;20037;-79
2023/10/19 19:26:48;;;;;;;7.10;4.57;;;;;;;7.34;100.00;100865.22;10414592;28;20048;-79
2023/10/19 19:31:50;;;;;;;11.68;5.55;;;;;;;7.07;100.00;100824.38;10410635;28;20084;-79
2023/10/19 19:36:51;;;;;;;11.15;4.78;;;;;;;6.99;100.00;100810.16;10414335;28;20073;-79
2023/10/19 19:41:52;;;;;;;7.38;4.68;;;;;;;6.63;100.00;100752.47;10419130;28;20065;-78
2023/10/19 19:46:53;;;;;;;10.82;4.55;;;;;;;6.98;100.00;100819.06;10400760;28;20041;-79
2023/10/19 19:51:55;;;;;;;14.77;4.90;;;;;;;6.74;100.00;100790.34;10417652;28;20436;-79
2023/10/19 19:56:55;;;;;;;9.60;5.43;;;;;;;7.01;100.00;100858.41;10418796;28;20048;-80
2023/10/19 20:01:56;;;;;;;15.50;4.35;;;;;;;6.42;100.00;100791.28;10417867;28;20501;-79
2023/10/19 20:06:57;;;;;;;12.57;4.32;;;;;;;6.88;100.00;100848.09;10416270;28;20493;-79
2023/10/19 20:11:58;;;;;;;10.82;4.13;;;;;;;6.72;100.00;100839.78;10417741;28;20088;-79
2023/10/19 20:16:59;;;;;;;7.95;4.28;;;;;;;6.46;100.00;100811.19;10417309;28;20408;-80
2023/10/19 20:21:59;;;;;;;16.13;4.45;;;;;;;5.81;100.00;100707.56;10417669;28;20052;-80
2023/10/19 20:27:00;;;;;;;13.55;4.20;;;;;;;6.32;100.00;100811.50;10417286;28;20128;-80
2023/10/19 20:32:01;;;;;;;18.38;6.90;;;;;;;5.79;100.00;100746.41;10417568;28;20128;-80
2023/10/19 20:37:02;;;;;;;36.17;12.55;;;;;;;6.20;100.00;100852.94;10415992;28;20045;-78
2023/10/19 20:42:03;;;;;;;53.05;14.57;;;;;;;6.09;100.00;100852.97;10416095;28;20044;-79
2023/10/19 20:47:08;;;;;;;36.25;9.85;;;;;;;5.73;100.00;100797.00;10415610;28;20048;-78
2023/10/19 20:52:09;;;;;;;39.47;11.82;;;;;;;5.87;100.00;100827.50;10415270;28;20048;-78
2023/10/19 20:57:09;;;;;;;52.55;12.32;;;;;;;5.92;100.00;100835.84;10415121;28;20048;-78
2023/10/19 21:02:12;;;;;;;50.13;12.73;;;;;;;5.38;100.00;100753.25;10414911;28;20135;-81
2023/10/19 21:07:12;;;;;;;25.33;11.00;;;;;;;5.41;100.00;100753.00;10415270;28;20125;-79
2023/10/19 21:12:13;;;;;;;34.55;10.60;;;;;;;5.56;100.00;100797.53;10414888;28;20041;-79
2023/10/19 21:17:14;;;;;;;43.10;12.18;;;;;;;5.58;100.00;100817.53;10415075;28;20120;-79
2023/10/19 21:22:15;;;;;;;31.55;9.23;;;;;;;5.58;100.00;100806.97;10414017;28;20413;-79
2023/10/19 21:27:18;;;;;;;12.48;6.40;;;;;;;5.69;100.00;100849.13;10414314;28;20484;-79
2023/10/19 21:32:19;;;;;;;17.30;5.90;;;;;;;5.52;100.00;100817.19;10414336;28;20049;-79
2023/10/19 21:37:20;;;;;;;16.55;6.25;;;;;;;5.11;100.00;100760.75;10414733;28;20496;-79
2023/10/19 21:42:21;;;;;;;16.58;6.57;;;;;;;5.72;100.00;100867.34;10414203;28;20127;-81
2023/10/19 21:47:22;;;;;;;11.40;5.38;;;;;;;4.75;100.00;100741.63;10412675;28;20520;-80
2023/10/19 21:52:23;;;;;;;19.50;5.88;;;;;;;4.75;100.00;100754.81;10413449;28;20175;-79
2023/10/19 21:57:25;;;;;;;11.88;5.30;;;;;;;5.11;100.00;100822.16;10412975;28;20037;-80
2023/10/19 22:02:26;;;;;;;10.02;5.32;;;;;;;5.24;100.00;100865.03;10412927;28;20041;-79
2023/10/19 22:07:27;;;;;;;12.15;5.70;;;;;;;4.85;100.00;100832.09;10413021;28;20068;-79
2023/10/19 22:12:28;;;;;;;12.85;6.25;;;;;;;4.69;100.00;100808.75;10413740;28;20171;-79
2023/10/19 22:17:30;;;;;;;8.60;4.75;;;;;;;4.68;100.00;100807.09;10413112;28;20041;-79
2023/10/19 22:22:31;;;;;;;9.93;4.75;;;;;;;4.40;100.00;100758.41;10413307;28;20056;-79
2023/10/19 22:27:32;;;;;;;6.68;4.22;;;;;;;4.77;100.00;100837.13;10412905;28;20519;-78
2023/10/19 22:32:32;;;;;;;12.27;4.70;;;;;;;4.70;100.00;100834.13;10395531;28;20042;-79
2023/10/19 22:37:33;;;;;;;7.53;4.82;;;;;;;4.29;100.00;100761.00;10412906;28;20140;-78
2023/10/19 22:42:34;;;;;;;21.45;6.28;;;;;;;4.70;100.00;100838.56;10412905;28;20493;-78
2023/10/19 22:47:35;;;;;;;9.57;5.68;;;;;;;4.67;100.00;100839.63;10412365;28;20037;-78
2023/10/19 22:52:37;;;;;;;16.52;5.43;;;;;;;4.30;100.00;100787.19;10413065;28;20107;-78
2023/10/19 22:57:41;;;;;;;8.25;5.43;;;;;;;4.14;100.00;100776.16;10412313;28;20505;-77
2023/10/19 23:02:45;;;;;;;12.82;4.93;;;;;;;3.96;100.00;100762.59;10418643;28;20037;-78
2023/10/19 23:07:46;;;;;;;10.27;4.83;;;;;;;4.10;100.00;100778.19;10401950;28;20085;-78
2023/10/19 23:12:47;;;;;;;11.93;4.88;;;;;;;4.07;100.00;100791.56;10420817;28;20045;-78
2023/10/19 23:17:50;;;;;;;23.95;5.35;;;;;;;3.89;100.00;100750.88;10420104;28;20037;-77
2023/10/19 23:22:51;;;;;;;19.37;5.50;;;;;;;4.22;100.00;100796.59;10419860;28;20049;-79
2023/10/19 23:27:52;;;;;;;9.90;5.45;;;;;;;3.80;100.00;100717.38;10418568;28;20044;-79
2023/10/19 23:32:54;;;;;;;13.20;4.82;;;;;;;2.98;100.00;100600.00;10419029;28;20631;-79
2023/10/19 23:37:54;;;;;;;8.02;4.28;;;;;;;3.28;100.00;100659.06;10419367;28;20108;-79
2023/10/19 23:42:58;;;;;;;10.45;4.50;;;;;;;3.79;100.00;100734.94;10418982;28;20481;-80
2023/10/19 23:47:59;;;;;;;6.53;4.00;;;;;;;3.73;100.00;100734.56;10419434;28;20394;-79
2023/10/19 23:53:02;;;;;;;11.82;4.25;;;;;;;3.69;100.00;100749.72;10418486;28;20045;-79
2023/10/19 23:58:03;;;;;;;6.05;4.28;;;;;;;3.59;100.00;100730.31;10404684;28;20033;-80
